sensor_id;sensor_type;location;lat;lon;timestamp;P1;durP1;ratioP1;P2;durP2;ratioP2
80163;SDS011;70071;55.130;61.268;2023-12-04T00:01:53;12.20;;;5.50;;
80163;SDS011;70071;55.130;61.268;2023-12-04T00:04:19;14.15;;;5.68;;
80163;SDS011;70071;55.130;61.268;2023-12-04T00:06:45;11.75;;;4.97;;
80163;SDS011;70071;55.130;61.268;2023-12-04T00:09:11;8.57;;;4.20;;
80163;SDS011;70071;55.130;61.268;2023-12-04T00:11:37;9.65;;;4.70;;
80163;SDS011;70071;55.130;61.268;2023-12-04T00:14:03;7.50;;;3.33;;
80163;SDS011;70071;55.130;61.268;2023-12-04T00:16:29;7.93;;;3.22;;
80163;SDS011;70071;55.130;61.268;2023-12-04T00:18:58;7.38;;;2.88;;
80163;SDS011;70071;55.130;61.268;2023-12-04T00:21:24;5.78;;;2.83;;
80163;SDS011;70071;55.130;61.268;2023-12-04T00:23:50;6.20;;;3.33;;
80163;SDS011;70071;55.130;61.268;2023-12-04T00:26:15;6.03;;;3.15;;
80163;SDS011;70071;55.130;61.268;2023-12-04T00:28:41;7.82;;;2.63;;
80163;SDS011;70071;55.130;61.268;2023-12-04T00:31:08;7.47;;;3.20;;
80163;SDS011;70071;55.130;61.268;2023-12-04T00:33:36;6.18;;;3.10;;
80163;SDS011;70071;55.130;61.268;2023-12-04T00:36:02;4.65;;;2.30;;
80163;SDS011;70071;55.130;61.268;2023-12-04T00:38:28;3.97;;;2.45;;
80163;SDS011;70071;55.130;61.268;2023-12-04T00:40:54;6.45;;;2.90;;
80163;SDS011;70071;55.130;61.268;2023-12-04T00:43:20;7.50;;;2.60;;
80163;SDS011;70071;55.130;61.268;2023-12-04T00:45:46;6.00;;;2.60;;
80163;SDS011;70071;55.130;61.268;2023-12-04T00:48:12;5.47;;;2.40;;
80163;SDS011;70071;55.130;61.268;2023-12-04T00:50:38;4.45;;;2.35;;
80163;SDS011;70071;55.130;61.268;2023-12-04T00:53:04;5.55;;;2.40;;
80163;SDS011;70071;55.130;61.268;2023-12-04T00:55:30;8.27;;;2.72;;
80163;SDS011;70071;55.130;61.268;2023-12-04T00:57:55;7.10;;;2.65;;
80163;SDS011;70071;55.130;61.268;2023-12-04T01:00:21;6.45;;;3.20;;
80163;SDS011;70071;55.130;61.268;2023-12-04T01:02:47;9.20;;;3.80;;
80163;SDS011;70071;55.130;61.268;2023-12-04T01:05:13;6.15;;;2.03;;
80163;SDS011;70071;55.130;61.268;2023-12-04T01:07:39;5.68;;;3.15;;
80163;SDS011;70071;55.130;61.268;2023-12-04T01:10:05;7.70;;;3.20;;
80163;SDS011;70071;55.130;61.268;2023-12-04T01:12:32;7.88;;;2.97;;
80163;SDS011;70071;55.130;61.268;2023-12-04T01:14:58;8.95;;;3.55;;
80163;SDS011;70071;55.130;61.268;2023-12-04T01:17:23;6.05;;;3.08;;
80163;SDS011;70071;55.130;61.268;2023-12-04T01:19:49;5.22;;;2.60;;
80163;SDS011;70071;55.130;61.268;2023-12-04T01:22:15;6.97;;;2.55;;
80163;SDS011;70071;55.130;61.268;2023-12-04T01:24:41;5.68;;;2.80;;
80163;SDS011;70071;55.130;61.268;2023-12-04T01:27:07;9.07;;;2.75;;
80163;SDS011;70071;55.130;61.268;2023-12-04T01:29:33;8.15;;;3.22;;
80163;SDS011;70071;55.130;61.268;2023-12-04T01:31:59;4.03;;;2.15;;
80163;SDS011;70071;55.130;61.268;2023-12-04T01:34:25;7.38;;;3.38;;
80163;SDS011;70071;55.130;61.268;2023-12-04T01:36:51;4.95;;;2.30;;
80163;SDS011;70071;55.130;61.268;2023-12-04T01:39:17;3.97;;;2.08;;
80163;SDS011;70071;55.130;61.268;2023-12-04T01:41:43;7.95;;;3.00;;
80163;SDS011;70071;55.130;61.268;2023-12-04T01:44:09;7.10;;;2.20;;
80163;SDS011;70071;55.130;61.268;2023-12-04T01:46:34;5.32;;;3.00;;
80163;SDS011;70071;55.130;61.268;2023-12-04T01:49:01;4.15;;;2.25;;
80163;SDS011;70071;55.130;61.268;2023-12-04T01:51:28;7.95;;;2.65;;
80163;SDS011;70071;55.130;61.268;2023-12-04T01:53:55;6.78;;;3.00;;
80163;SDS011;70071;55.130;61.268;2023-12-04T01:56:24;8.20;;;2.53;;
80163;SDS011;70071;55.130;61.268;2023-12-04T01:58:50;4.90;;;2.17;;
80163;SDS011;70071;55.130;61.268;2023-12-04T02:01:17;5.10;;;2.38;;
80163;SDS011;70071;55.130;61.268;2023-12-04T02:03:45;7.30;;;2.85;;
80163;SDS011;70071;55.130;61.268;2023-12-04T02:06:11;4.30;;;1.83;;
80163;SDS011;70071;55.130;61.268;2023-12-04T02:08:39;5.18;;;2.35;;
80163;SDS011;70071;55.130;61.268;2023-12-04T02:11:06;4.88;;;1.58;;
80163;SDS011;70071;55.130;61.268;2023-12-04T02:13:32;4.65;;;1.92;;
80163;SDS011;70071;55.130;61.268;2023-12-04T02:16:00;4.47;;;2.35;;
80163;SDS011;70071;55.130;61.268;2023-12-04T02:18:34;5.13;;;1.88;;
80163;SDS011;70071;55.130;61.268;2023-12-04T02:21:20;5.88;;;2.30;;
80163;SDS011;70071;55.130;61.268;2023-12-04T02:23:50;5.22;;;1.83;;
80163;SDS011;70071;55.130;61.268;2023-12-04T02:26:18;4.82;;;2.30;;
80163;SDS011;70071;55.130;61.268;2023-12-04T02:28:50;4.80;;;2.10;;
80163;SDS011;70071;55.130;61.268;2023-12-04T02:31:21;5.85;;;1.92;;
80163;SDS011;70071;55.130;61.268;2023-12-04T02:33:50;5.47;;;1.92;;
80163;SDS011;70071;55.130;61.268;2023-12-04T02:36:21;8.30;;;2.17;;
80163;SDS011;70071;55.130;61.268;2023-12-04T02:38:50;5.95;;;2.42;;
80163;SDS011;70071;55.130;61.268;2023-12-04T02:41:17;3.78;;;1.92;;
80163;SDS011;70071;55.130;61.268;2023-12-04T02:43:43;6.00;;;2.55;;
80163;SDS011;70071;55.130;61.268;2023-12-04T02:46:09;4.25;;;2.22;;
80163;SDS011;70071;55.130;61.268;2023-12-04T02:48:35;6.90;;;2.80;;
80163;SDS011;70071;55.130;61.268;2023-12-04T02:51:02;5.72;;;2.72;;
80163;SDS011;70071;55.130;61.268;2023-12-04T02:53:29;4.13;;;2.35;;
80163;SDS011;70071;55.130;61.268;2023-12-04T02:55:55;5.68;;;2.00;;
80163;SDS011;70071;55.130;61.268;2023-12-04T02:58:20;8.93;;;2.58;;
80163;SDS011;70071;55.130;61.268;2023-12-04T03:00:46;5.70;;;2.47;;
80163;SDS011;70071;55.130;61.268;2023-12-04T03:03:12;5.53;;;3.08;;
80163;SDS011;70071;55.130;61.268;2023-12-04T03:05:38;5.75;;;2.45;;
80163;SDS011;70071;55.130;61.268;2023-12-04T03:08:04;12.02;;;3.15;;
80163;SDS011;70071;55.130;61.268;2023-12-04T03:10:30;4.43;;;2.45;;
80163;SDS011;70071;55.130;61.268;2023-12-04T03:12:56;5.82;;;2.90;;
80163;SDS011;70071;55.130;61.268;2023-12-04T03:15:22;6.63;;;2.80;;
80163;SDS011;70071;55.130;61.268;2023-12-04T03:17:48;4.93;;;2.40;;
80163;SDS011;70071;55.130;61.268;2023-12-04T03:20:14;7.20;;;3.13;;
80163;SDS011;70071;55.130;61.268;2023-12-04T03:22:40;5.82;;;3.10;;
80163;SDS011;70071;55.130;61.268;2023-12-04T03:25:06;5.90;;;3.22;;
80163;SDS011;70071;55.130;61.268;2023-12-04T03:27:34;5.78;;;3.03;;
80163;SDS011;70071;55.130;61.268;2023-12-04T03:30:00;6.60;;;2.63;;
80163;SDS011;70071;55.130;61.268;2023-12-04T03:32:29;7.00;;;3.38;;
80163;SDS011;70071;55.130;61.268;2023-12-04T03:34:55;9.60;;;3.50;;
80163;SDS011;70071;55.130;61.268;2023-12-04T03:37:21;7.05;;;3.22;;
80163;SDS011;70071;55.130;61.268;2023-12-04T03:39:47;6.25;;;3.30;;
80163;SDS011;70071;55.130;61.268;2023-12-04T03:42:13;8.02;;;3.55;;
80163;SDS011;70071;55.130;61.268;2023-12-04T03:44:39;7.88;;;3.00;;
80163;SDS011;70071;55.130;61.268;2023-12-04T03:47:05;6.07;;;2.83;;
80163;SDS011;70071;55.130;61.268;2023-12-04T03:49:31;6.10;;;3.03;;
80163;SDS011;70071;55.130;61.268;2023-12-04T03:51:57;6.60;;;3.38;;
80163;SDS011;70071;55.130;61.268;2023-12-04T03:54:22;6.15;;;3.28;;
80163;SDS011;70071;55.130;61.268;2023-12-04T03:56:48;6.63;;;2.40;;
80163;SDS011;70071;55.130;61.268;2023-12-04T03:59:15;5.57;;;2.67;;
80163;SDS011;70071;55.130;61.268;2023-12-04T04:01:41;5.75;;;2.88;;
80163;SDS011;70071;55.130;61.268;2023-12-04T04:04:06;4.45;;;2.72;;
80163;SDS011;70071;55.130;61.268;2023-12-04T04:06:32;8.60;;;2.60;;
80163;SDS011;70071;55.130;61.268;2023-12-04T04:08:58;4.65;;;2.00;;
80163;SDS011;70071;55.130;61.268;2023-12-04T04:11:24;4.82;;;2.67;;
80163;SDS011;70071;55.130;61.268;2023-12-04T04:13:50;8.02;;;3.42;;
80163;SDS011;70071;55.130;61.268;2023-12-04T04:16:16;7.63;;;2.95;;
80163;SDS011;70071;55.130;61.268;2023-12-04T04:18:42;6.32;;;2.63;;
80163;SDS011;70071;55.130;61.268;2023-12-04T04:21:09;6.82;;;3.13;;
80163;SDS011;70071;55.130;61.268;2023-12-04T04:23:35;5.70;;;2.85;;
80163;SDS011;70071;55.130;61.268;2023-12-04T04:26:01;5.88;;;3.13;;
80163;SDS011;70071;55.130;61.268;2023-12-04T04:28:28;6.13;;;2.80;;
80163;SDS011;70071;55.130;61.268;2023-12-04T04:30:54;6.05;;;2.78;;
80163;SDS011;70071;55.130;61.268;2023-12-04T04:33:20;5.43;;;3.20;;
80163;SDS011;70071;55.130;61.268;2023-12-04T04:35:46;8.35;;;3.30;;
80163;SDS011;70071;55.130;61.268;2023-12-04T04:38:12;7.40;;;2.75;;
80163;SDS011;70071;55.130;61.268;2023-12-04T04:40:38;7.22;;;2.83;;
80163;SDS011;70071;55.130;61.268;2023-12-04T04:43:08;5.43;;;3.25;;
80163;SDS011;70071;55.130;61.268;2023-12-04T04:45:35;8.85;;;3.22;;
80163;SDS011;70071;55.130;61.268;2023-12-04T04:48:01;4.28;;;2.58;;
80163;SDS011;70071;55.130;61.268;2023-12-04T04:50:27;6.05;;;3.17;;
80163;SDS011;70071;55.130;61.268;2023-12-04T04:52:53;5.88;;;3.13;;
80163;SDS011;70071;55.130;61.268;2023-12-04T04:55:19;5.90;;;3.30;;
80163;SDS011;70071;55.130;61.268;2023-12-04T04:57:45;6.28;;;3.72;;
80163;SDS011;70071;55.130;61.268;2023-12-04T05:00:11;8.82;;;4.68;;
80163;SDS011;70071;55.130;61.268;2023-12-04T05:02:37;11.30;;;4.82;;
80163;SDS011;70071;55.130;61.268;2023-12-04T05:05:03;7.80;;;4.03;;
80163;SDS011;70071;55.130;61.268;2023-12-04T05:07:31;9.73;;;3.78;;
80163;SDS011;70071;55.130;61.268;2023-12-04T05:09:57;9.15;;;3.75;;
80163;SDS011;70071;55.130;61.268;2023-12-04T05:12:23;6.45;;;3.45;;
80163;SDS011;70071;55.130;61.268;2023-12-04T05:14:49;8.73;;;3.70;;
80163;SDS011;70071;55.130;61.268;2023-12-04T05:17:15;8.88;;;3.50;;
80163;SDS011;70071;55.130;61.268;2023-12-04T05:19:41;8.68;;;3.85;;
80163;SDS011;70071;55.130;61.268;2023-12-04T05:22:07;8.35;;;3.88;;
80163;SDS011;70071;55.130;61.268;2023-12-04T05:24:33;10.70;;;4.03;;
80163;SDS011;70071;55.130;61.268;2023-12-04T05:27:00;11.57;;;3.88;;
80163;SDS011;70071;55.130;61.268;2023-12-04T05:29:28;7.97;;;4.25;;
80163;SDS011;70071;55.130;61.268;2023-12-04T05:31:54;9.90;;;4.38;;
80163;SDS011;70071;55.130;61.268;2023-12-04T05:34:20;8.55;;;3.72;;
80163;SDS011;70071;55.130;61.268;2023-12-04T05:36:45;5.90;;;3.55;;
80163;SDS011;70071;55.130;61.268;2023-12-04T05:39:11;8.55;;;3.63;;
80163;SDS011;70071;55.130;61.268;2023-12-04T05:41:37;6.78;;;2.88;;
80163;SDS011;70071;55.130;61.268;2023-12-04T05:44:03;6.72;;;3.53;;
80163;SDS011;70071;55.130;61.268;2023-12-04T05:46:29;6.55;;;3.35;;
80163;SDS011;70071;55.130;61.268;2023-12-04T05:48:55;10.27;;;4.25;;
80163;SDS011;70071;55.130;61.268;2023-12-04T05:51:21;6.65;;;3.72;;
80163;SDS011;70071;55.130;61.268;2023-12-04T05:53:47;7.05;;;3.65;;
80163;SDS011;70071;55.130;61.268;2023-12-04T05:56:13;5.15;;;3.10;;
80163;SDS011;70071;55.130;61.268;2023-12-04T05:58:39;7.95;;;4.10;;
80163;SDS011;70071;55.130;61.268;2023-12-04T06:01:05;8.55;;;3.65;;
80163;SDS011;70071;55.130;61.268;2023-12-04T06:03:32;7.88;;;3.97;;
80163;SDS011;70071;55.130;61.268;2023-12-04T06:05:58;6.53;;;3.72;;
80163;SDS011;70071;55.130;61.268;2023-12-04T06:08:24;6.05;;;2.83;;
80163;SDS011;70071;55.130;61.268;2023-12-04T06:10:49;7.03;;;3.58;;
80163;SDS011;70071;55.130;61.268;2023-12-04T06:13:15;4.35;;;2.58;;
80163;SDS011;70071;55.130;61.268;2023-12-04T06:15:42;7.82;;;4.03;;
80163;SDS011;70071;55.130;61.268;2023-12-04T06:18:08;6.10;;;3.05;;
80163;SDS011;70071;55.130;61.268;2023-12-04T06:20:33;7.72;;;3.65;;
80163;SDS011;70071;55.130;61.268;2023-12-04T06:22:59;6.95;;;4.20;;
80163;SDS011;70071;55.130;61.268;2023-12-04T06:25:25;5.95;;;3.20;;
80163;SDS011;70071;55.130;61.268;2023-12-04T06:27:52;8.88;;;3.65;;
80163;SDS011;70071;55.130;61.268;2023-12-04T06:30:18;9.18;;;3.75;;
80163;SDS011;70071;55.130;61.268;2023-12-04T06:32:44;10.20;;;4.22;;
80163;SDS011;70071;55.130;61.268;2023-12-04T06:35:11;7.25;;;3.58;;
80163;SDS011;70071;55.130;61.268;2023-12-04T06:37:38;7.97;;;4.28;;
80163;SDS011;70071;55.130;61.268;2023-12-04T06:40:07;7.25;;;3.55;;
80163;SDS011;70071;55.130;61.268;2023-12-04T06:42:36;4.07;;;2.50;;
80163;SDS011;70071;55.130;61.268;2023-12-04T06:45:02;5.57;;;3.05;;
80163;SDS011;70071;55.130;61.268;2023-12-04T06:47:32;8.35;;;3.88;;
80163;SDS011;70071;55.130;61.268;2023-12-04T06:50:00;6.75;;;3.13;;
80163;SDS011;70071;55.130;61.268;2023-12-04T06:52:26;7.30;;;3.28;;
80163;SDS011;70071;55.130;61.268;2023-12-04T06:54:52;6.93;;;3.10;;
80163;SDS011;70071;55.130;61.268;2023-12-04T06:57:18;5.15;;;2.35;;
80163;SDS011;70071;55.130;61.268;2023-12-04T06:59:44;8.77;;;3.83;;
80163;SDS011;70071;55.130;61.268;2023-12-04T07:02:09;4.72;;;2.35;;
80163;SDS011;70071;55.130;61.268;2023-12-04T07:04:35;6.38;;;3.22;;
80163;SDS011;70071;55.130;61.268;2023-12-04T07:07:02;6.60;;;2.67;;
80163;SDS011;70071;55.130;61.268;2023-12-04T07:09:31;3.38;;;1.50;;
80163;SDS011;70071;55.130;61.268;2023-12-04T07:11:58;5.18;;;2.47;;
80163;SDS011;70071;55.130;61.268;2023-12-04T07:14:24;7.38;;;2.42;;
80163;SDS011;70071;55.130;61.268;2023-12-04T07:16:50;4.78;;;2.70;;
80163;SDS011;70071;55.130;61.268;2023-12-04T07:19:16;2.70;;;2.00;;
80163;SDS011;70071;55.130;61.268;2023-12-04T07:21:42;4.55;;;1.70;;
80163;SDS011;70071;55.130;61.268;2023-12-04T07:24:08;4.35;;;2.30;;
80163;SDS011;70071;55.130;61.268;2023-12-04T07:26:35;4.25;;;1.58;;
80163;SDS011;70071;55.130;61.268;2023-12-04T07:29:01;5.45;;;3.15;;
80163;SDS011;70071;55.130;61.268;2023-12-04T07:31:28;5.40;;;2.65;;
80163;SDS011;70071;55.130;61.268;2023-12-04T07:33:55;7.45;;;2.97;;
80163;SDS011;70071;55.130;61.268;2023-12-04T07:36:21;5.38;;;2.45;;
80163;SDS011;70071;55.130;61.268;2023-12-04T07:38:47;2.45;;;1.05;;
80163;SDS011;70071;55.130;61.268;2023-12-04T07:41:14;4.60;;;2.17;;
80163;SDS011;70071;55.130;61.268;2023-12-04T07:43:40;5.53;;;2.45;;
80163;SDS011;70071;55.130;61.268;2023-12-04T07:46:08;8.23;;;2.70;;
80163;SDS011;70071;55.130;61.268;2023-12-04T07:48:35;3.80;;;2.10;;
80163;SDS011;70071;55.130;61.268;2023-12-04T07:51:01;4.10;;;2.40;;
80163;SDS011;70071;55.130;61.268;2023-12-04T07:53:27;6.72;;;2.75;;
80163;SDS011;70071;55.130;61.268;2023-12-04T07:55:53;5.97;;;2.53;;
80163;SDS011;70071;55.130;61.268;2023-12-04T07:58:18;3.67;;;1.95;;
80163;SDS011;70071;55.130;61.268;2023-12-04T08:00:44;4.43;;;1.58;;
80163;SDS011;70071;55.130;61.268;2023-12-04T08:03:10;5.53;;;2.03;;
80163;SDS011;70071;55.130;61.268;2023-12-04T08:05:36;3.78;;;2.03;;
80163;SDS011;70071;55.130;61.268;2023-12-04T08:08:02;3.80;;;2.08;;
80163;SDS011;70071;55.130;61.268;2023-12-04T08:10:29;4.10;;;2.10;;
80163;SDS011;70071;55.130;61.268;2023-12-04T08:12:55;5.20;;;2.47;;
80163;SDS011;70071;55.130;61.268;2023-12-04T08:15:21;2.97;;;1.50;;
80163;SDS011;70071;55.130;61.268;2023-12-04T08:17:46;5.10;;;1.90;;
80163;SDS011;70071;55.130;61.268;2023-12-04T08:20:12;3.55;;;1.83;;
80163;SDS011;70071;55.130;61.268;2023-12-04T08:22:39;4.35;;;2.63;;
80163;SDS011;70071;55.130;61.268;2023-12-04T08:25:06;4.25;;;1.98;;
80163;SDS011;70071;55.130;61.268;2023-12-04T08:27:33;4.78;;;2.08;;
80163;SDS011;70071;55.130;61.268;2023-12-04T08:29:59;5.03;;;2.20;;
80163;SDS011;70071;55.130;61.268;2023-12-04T08:32:25;4.35;;;2.20;;
80163;SDS011;70071;55.130;61.268;2023-12-04T08:34:54;7.68;;;2.95;;
80163;SDS011;70071;55.130;61.268;2023-12-04T08:37:20;7.50;;;3.13;;
80163;SDS011;70071;55.130;61.268;2023-12-04T08:39:46;4.88;;;2.47;;
80163;SDS011;70071;55.130;61.268;2023-12-04T08:42:12;4.30;;;2.17;;
80163;SDS011;70071;55.130;61.268;2023-12-04T08:44:38;6.47;;;2.17;;
80163;SDS011;70071;55.130;61.268;2023-12-04T08:47:05;5.53;;;2.38;;
80163;SDS011;70071;55.130;61.268;2023-12-04T08:49:31;6.20;;;2.33;;
80163;SDS011;70071;55.130;61.268;2023-12-04T08:51:58;5.55;;;2.20;;
80163;SDS011;70071;55.130;61.268;2023-12-04T08:54:24;4.97;;;2.28;;
80163;SDS011;70071;55.130;61.268;2023-12-04T08:56:50;3.33;;;2.13;;
80163;SDS011;70071;55.130;61.268;2023-12-04T08:59:16;2.90;;;1.83;;
80163;SDS011;70071;55.130;61.268;2023-12-04T09:01:42;4.22;;;2.25;;
80163;SDS011;70071;55.130;61.268;2023-12-04T09:04:09;4.53;;;2.50;;
80163;SDS011;70071;55.130;61.268;2023-12-04T09:06:35;4.93;;;2.17;;
80163;SDS011;70071;55.130;61.268;2023-12-04T09:09:01;4.05;;;2.05;;
80163;SDS011;70071;55.130;61.268;2023-12-04T09:11:28;4.68;;;1.83;;
80163;SDS011;70071;55.130;61.268;2023-12-04T09:13:54;3.55;;;1.92;;
80163;SDS011;70071;55.130;61.268;2023-12-04T09:16:20;4.45;;;2.28;;
80163;SDS011;70071;55.130;61.268;2023-12-04T09:18:46;4.43;;;2.20;;
80163;SDS011;70071;55.130;61.268;2023-12-04T09:21:12;15.05;;;3.08;;
80163;SDS011;70071;55.130;61.268;2023-12-04T09:23:38;5.45;;;2.25;;
80163;SDS011;70071;55.130;61.268;2023-12-04T09:26:04;1.90;;;0.75;;
80163;SDS011;70071;55.130;61.268;2023-12-04T09:28:30;3.50;;;1.90;;
80163;SDS011;70071;55.130;61.268;2023-12-04T09:30:56;3.85;;;1.70;;
80163;SDS011;70071;55.130;61.268;2023-12-04T09:33:22;3.97;;;1.95;;
80163;SDS011;70071;55.130;61.268;2023-12-04T09:35:48;3.10;;;1.83;;
80163;SDS011;70071;55.130;61.268;2023-12-04T09:38:14;5.00;;;1.77;;
80163;SDS011;70071;55.130;61.268;2023-12-04T09:40:40;5.78;;;1.58;;
80163;SDS011;70071;55.130;61.268;2023-12-04T09:43:06;3.60;;;1.95;;
80163;SDS011;70071;55.130;61.268;2023-12-04T09:45:32;3.30;;;1.50;;
80163;SDS011;70071;55.130;61.268;2023-12-04T09:47:58;1.75;;;0.93;;
80163;SDS011;70071;55.130;61.268;2023-12-04T09:50:25;3.63;;;1.70;;
80163;SDS011;70071;55.130;61.268;2023-12-04T09:52:51;1.52;;;0.80;;
80163;SDS011;70071;55.130;61.268;2023-12-04T09:55:18;3.90;;;1.70;;
80163;SDS011;70071;55.130;61.268;2023-12-04T09:57:45;5.88;;;2.30;;
80163;SDS011;70071;55.130;61.268;2023-12-04T10:00:15;3.67;;;1.65;;
80163;SDS011;70071;55.130;61.268;2023-12-04T10:02:42;3.65;;;1.75;;
80163;SDS011;70071;55.130;61.268;2023-12-04T10:05:08;2.83;;;1.80;;
80163;SDS011;70071;55.130;61.268;2023-12-04T10:07:34;3.85;;;2.08;;
80163;SDS011;70071;55.130;61.268;2023-12-04T10:10:02;5.82;;;2.17;;
80163;SDS011;70071;55.130;61.268;2023-12-04T10:12:31;4.82;;;2.33;;
80163;SDS011;70071;55.130;61.268;2023-12-04T10:15:06;4.40;;;2.38;;
80163;SDS011;70071;55.130;61.268;2023-12-04T10:17:35;5.70;;;2.20;;
80163;SDS011;70071;55.130;61.268;2023-12-04T10:20:09;4.93;;;2.55;;
80163;SDS011;70071;55.130;61.268;2023-12-04T10:22:52;4.60;;;1.88;;
80163;SDS011;70071;55.130;61.268;2023-12-04T10:25:19;6.68;;;2.40;;
80163;SDS011;70071;55.130;61.268;2023-12-04T10:27:46;3.20;;;2.15;;
80163;SDS011;70071;55.130;61.268;2023-12-04T10:30:26;2.00;;;1.35;;
80163;SDS011;70071;55.130;61.268;2023-12-04T10:32:54;4.80;;;1.83;;
80163;SDS011;70071;55.130;61.268;2023-12-04T10:35:21;5.07;;;2.10;;
80163;SDS011;70071;55.130;61.268;2023-12-04T10:37:49;3.95;;;1.70;;
80163;SDS011;70071;55.130;61.268;2023-12-04T10:40:29;5.30;;;2.38;;
80163;SDS011;70071;55.130;61.268;2023-12-04T10:45:34;3.88;;;2.25;;
80163;SDS011;70071;55.130;61.268;2023-12-04T10:48:04;6.43;;;2.75;;
80163;SDS011;70071;55.130;61.268;2023-12-04T10:50:32;4.50;;;1.90;;
80163;SDS011;70071;55.130;61.268;2023-12-04T10:53:03;4.60;;;2.00;;
80163;SDS011;70071;55.130;61.268;2023-12-04T10:55:33;4.95;;;2.17;;
80163;SDS011;70071;55.130;61.268;2023-12-04T10:58:09;4.22;;;1.88;;
80163;SDS011;70071;55.130;61.268;2023-12-04T11:03:10;4.78;;;2.00;;
80163;SDS011;70071;55.130;61.268;2023-12-04T11:05:42;5.07;;;1.80;;
80163;SDS011;70071;55.130;61.268;2023-12-04T11:08:11;3.55;;;2.05;;
80163;SDS011;70071;55.130;61.268;2023-12-04T11:10:45;3.65;;;2.25;;
80163;SDS011;70071;55.130;61.268;2023-12-04T11:13:32;4.55;;;2.25;;
80163;SDS011;70071;55.130;61.268;2023-12-04T11:16:01;4.88;;;2.30;;
80163;SDS011;70071;55.130;61.268;2023-12-04T11:18:30;4.97;;;2.10;;
80163;SDS011;70071;55.130;61.268;2023-12-04T11:21:03;3.90;;;1.70;;
80163;SDS011;70071;55.130;61.268;2023-12-04T11:23:33;5.13;;;2.17;;
80163;SDS011;70071;55.130;61.268;2023-12-04T11:26:00;2.97;;;1.77;;
80163;SDS011;70071;55.130;61.268;2023-12-04T11:28:29;4.47;;;1.70;;
80163;SDS011;70071;55.130;61.268;2023-12-04T11:30:56;2.55;;;1.48;;
80163;SDS011;70071;55.130;61.268;2023-12-04T11:35:50;3.95;;;2.40;;
80163;SDS011;70071;55.130;61.268;2023-12-04T11:38:16;5.20;;;2.00;;
80163;SDS011;70071;55.130;61.268;2023-12-04T11:40:43;3.63;;;1.95;;
80163;SDS011;70071;55.130;61.268;2023-12-04T11:43:22;4.72;;;2.15;;
80163;SDS011;70071;55.130;61.268;2023-12-04T11:45:51;5.13;;;2.05;;
80163;SDS011;70071;55.130;61.268;2023-12-04T11:48:22;3.97;;;2.38;;
80163;SDS011;70071;55.130;61.268;2023-12-04T11:50:49;5.35;;;2.25;;
80163;SDS011;70071;55.130;61.268;2023-12-04T11:53:16;3.45;;;1.55;;
80163;SDS011;70071;55.130;61.268;2023-12-04T11:55:42;3.00;;;1.60;;
80163;SDS011;70071;55.130;61.268;2023-12-04T11:58:08;4.40;;;2.15;;
80163;SDS011;70071;55.130;61.268;2023-12-04T12:00:36;3.78;;;2.45;;
80163;SDS011;70071;55.130;61.268;2023-12-04T12:03:04;4.07;;;1.83;;
80163;SDS011;70071;55.130;61.268;2023-12-04T12:05:32;5.05;;;2.35;;
80163;SDS011;70071;55.130;61.268;2023-12-04T12:08:00;2.42;;;1.33;;
80163;SDS011;70071;55.130;61.268;2023-12-04T12:10:28;3.05;;;1.48;;
80163;SDS011;70071;55.130;61.268;2023-12-04T12:12:55;3.08;;;1.67;;
80163;SDS011;70071;55.130;61.268;2023-12-04T12:15:22;3.13;;;2.05;;
80163;SDS011;70071;55.130;61.268;2023-12-04T12:17:49;2.80;;;1.30;;
80163;SDS011;70071;55.130;61.268;2023-12-04T12:20:16;5.10;;;2.72;;
80163;SDS011;70071;55.130;61.268;2023-12-04T12:22:42;2.50;;;0.95;;
80163;SDS011;70071;55.130;61.268;2023-12-04T12:25:11;1.77;;;0.70;;
80163;SDS011;70071;55.130;61.268;2023-12-04T12:27:38;3.30;;;1.88;;
80163;SDS011;70071;55.130;61.268;2023-12-04T12:30:05;4.30;;;2.40;;
80163;SDS011;70071;55.130;61.268;2023-12-04T12:34:58;2.95;;;1.60;;
80163;SDS011;70071;55.130;61.268;2023-12-04T12:37:24;5.15;;;1.98;;
80163;SDS011;70071;55.130;61.268;2023-12-04T12:39:51;3.38;;;1.75;;
80163;SDS011;70071;55.130;61.268;2023-12-04T12:42:27;4.57;;;1.98;;
80163;SDS011;70071;55.130;61.268;2023-12-04T12:44:54;3.83;;;1.58;;
80163;SDS011;70071;55.130;61.268;2023-12-04T12:49:47;5.38;;;2.13;;
80163;SDS011;70071;55.130;61.268;2023-12-04T12:52:14;4.03;;;2.30;;
80163;SDS011;70071;55.130;61.268;2023-12-04T12:54:40;4.10;;;2.28;;
80163;SDS011;70071;55.130;61.268;2023-12-04T12:57:07;5.50;;;2.30;;
80163;SDS011;70071;55.130;61.268;2023-12-04T12:59:33;4.70;;;2.30;;
80163;SDS011;70071;55.130;61.268;2023-12-04T13:02:00;5.45;;;2.03;;
80163;SDS011;70071;55.130;61.268;2023-12-04T13:04:33;4.28;;;2.85;;
80163;SDS011;70071;55.130;61.268;2023-12-04T13:07:03;2.35;;;1.30;;
80163;SDS011;70071;55.130;61.268;2023-12-04T13:09:32;3.85;;;2.00;;
80163;SDS011;70071;55.130;61.268;2023-12-04T13:11:58;7.25;;;2.53;;
80163;SDS011;70071;55.130;61.268;2023-12-04T13:14:27;5.47;;;2.30;;
80163;SDS011;70071;55.130;61.268;2023-12-04T13:16:53;3.28;;;2.10;;
80163;SDS011;70071;55.130;61.268;2023-12-04T13:19:22;4.40;;;2.88;;
80163;SDS011;70071;55.130;61.268;2023-12-04T13:21:49;4.95;;;2.80;;
80163;SDS011;70071;55.130;61.268;2023-12-04T13:24:16;3.60;;;2.53;;
80163;SDS011;70071;55.130;61.268;2023-12-04T13:26:43;4.60;;;2.72;;
80163;SDS011;70071;55.130;61.268;2023-12-04T13:29:10;4.53;;;2.80;;
80163;SDS011;70071;55.130;61.268;2023-12-04T13:31:37;3.53;;;2.25;;
80163;SDS011;70071;55.130;61.268;2023-12-04T13:34:03;6.45;;;2.80;;
80163;SDS011;70071;55.130;61.268;2023-12-04T13:36:34;4.80;;;2.50;;
80163;SDS011;70071;55.130;61.268;2023-12-04T13:39:02;4.57;;;2.22;;
80163;SDS011;70071;55.130;61.268;2023-12-04T13:41:30;4.25;;;2.08;;
80163;SDS011;70071;55.130;61.268;2023-12-04T13:44:15;5.57;;;2.47;;
80163;SDS011;70071;55.130;61.268;2023-12-04T13:46:41;4.28;;;2.72;;
80163;SDS011;70071;55.130;61.268;2023-12-04T13:49:07;4.22;;;2.15;;
80163;SDS011;70071;55.130;61.268;2023-12-04T13:51:33;3.40;;;2.00;;
80163;SDS011;70071;55.130;61.268;2023-12-04T13:54:05;6.70;;;3.08;;
80163;SDS011;70071;55.130;61.268;2023-12-04T13:59:18;3.88;;;2.40;;
80163;SDS011;70071;55.130;61.268;2023-12-04T14:01:48;7.05;;;3.25;;
80163;SDS011;70071;55.130;61.268;2023-12-04T14:04:16;3.53;;;1.70;;
80163;SDS011;70071;55.130;61.268;2023-12-04T14:06:42;7.00;;;3.60;;
80163;SDS011;70071;55.130;61.268;2023-12-04T14:09:08;6.07;;;3.20;;
80163;SDS011;70071;55.130;61.268;2023-12-04T14:11:43;5.93;;;3.05;;
80163;SDS011;70071;55.130;61.268;2023-12-04T14:14:10;5.07;;;2.33;;
80163;SDS011;70071;55.130;61.268;2023-12-04T14:16:38;4.25;;;2.65;;
80163;SDS011;70071;55.130;61.268;2023-12-04T14:19:06;5.47;;;2.97;;
80163;SDS011;70071;55.130;61.268;2023-12-04T14:21:32;4.65;;;2.92;;
80163;SDS011;70071;55.130;61.268;2023-12-04T14:23:58;5.20;;;2.90;;
80163;SDS011;70071;55.130;61.268;2023-12-04T14:26:25;5.22;;;2.85;;
80163;SDS011;70071;55.130;61.268;2023-12-04T14:28:51;7.70;;;3.13;;
80163;SDS011;70071;55.130;61.268;2023-12-04T14:31:17;6.80;;;3.13;;
80163;SDS011;70071;55.130;61.268;2023-12-04T14:33:43;5.97;;;2.70;;
80163;SDS011;70071;55.130;61.268;2023-12-04T14:36:09;6.55;;;2.97;;
80163;SDS011;70071;55.130;61.268;2023-12-04T14:38:37;6.30;;;2.90;;
80163;SDS011;70071;55.130;61.268;2023-12-04T14:41:03;6.30;;;3.50;;
80163;SDS011;70071;55.130;61.268;2023-12-04T14:43:29;6.63;;;4.00;;
80163;SDS011;70071;55.130;61.268;2023-12-04T14:45:55;7.45;;;3.65;;
80163;SDS011;70071;55.130;61.268;2023-12-04T14:48:21;6.95;;;4.15;;